Time;durP1;ratioP1;P1;durP2;ratioP2;P2;SDS_P1;SDS_P2;PMS_P1;PMS_P2;Temp;Humidity;BMP_temperature;BMP_pressure;BME280_temperature;BME280_humidity;BME280_pressure;Samples;Min_cycle;Max_cycle;Signal;HPM_P1;HPM_P2
2023/10/07 07:43:48;;;;;;;4.85;1.20;;;16.40;66.00;;;;;;5048709;28;20055;-69
2023/10/07 07:46:18;;;;;;;3.95;1.35;;;16.40;64.10;;;;;;5050149;28;20045;-69
2023/10/07 07:48:45;;;;;;;2.63;1.13;;;16.50;65.70;;;;;;5046163;28;20049;-69
2023/10/07 07:51:20;;;;;;;3.60;1.20;;;16.50;64.60;;;;;;5049581;28;20033;-69
2023/10/07 07:53:48;;;;;;;4.35;1.20;;;16.40;64.10;;;;;;5050054;28;20056;-69
2023/10/07 07:56:15;;;;;;;1.85;0.60;;;16.40;64.10;;;;;;5049684;28;20036;-70
2023/10/07 07:58:52;;;;;;;5.35;1.00;;;16.30;64.30;;;;;;5031586;28;20043;-70
2023/10/07 08:01:28;;;;;;;2.25;1.00;;;16.30;65.10;;;;;;5043569;28;20026;-69
2023/10/07 08:03:59;;;;;;;3.13;1.20;;;16.20;66.50;;;;;;5030772;28;20044;-69
2023/10/07 08:06:27;;;;;;;6.32;1.13;;;16.20;66.40;;;;;;5049322;28;20044;-69
2023/10/07 08:08:54;;;;;;;5.28;1.27;;;16.20;66.40;;;;;;5048703;28;20087;-68
2023/10/07 08:11:22;;;;;;;5.82;1.20;;;16.20;66.70;;;;;;5049919;28;20478;-69
2023/10/07 08:13:49;;;;;;;4.32;1.08;;;16.20;66.70;;;;;;5048813;28;20495;-69
2023/10/07 08:16:18;;;;;;;7.68;1.75;;;16.20;67.00;;;;;;5049405;28;20037;-70
2023/10/07 08:18:48;;;;;;;5.88;1.50;;;16.10;66.90;;;;;;5031472;28;20024;-70
2023/10/07 08:21:19;;;;;;;7.32;1.40;;;16.20;67.10;;;;;;5049598;28;20033;-68
2023/10/07 08:23:46;;;;;;;4.15;1.38;;;16.20;66.50;;;;;;5049161;28;20025;-68
2023/10/07 08:26:20;;;;;;;7.20;1.77;;;16.20;67.70;;;;;;5049989;28;20092;-68
2023/10/07 08:28:59;;;;;;;7.18;1.23;;;16.10;67.50;;;;;;5049362;28;20060;-68
2023/10/07 08:31:39;;;;;;;4.22;1.40;;;16.10;67.20;;;;;;5048963;28;20056;-68
2023/10/07 08:36:37;;;;;;;6.07;1.70;;;16.10;68.30;;;;;;5048861;28;20044;-68
2023/10/07 08:39:06;;;;;;;6.38;1.80;;;16.10;68.10;;;;;;5048992;28;20073;-68
2023/10/07 08:41:33;;;;;;;6.50;1.70;;;16.10;68.60;;;;;;5048653;28;20099;-69
2023/10/07 11:43:20;;;;;;;7.82;1.95;;;15.70;69.90;;;;;;5070913;28;20564;-68
2023/10/07 11:45:50;;;;;;;5.15;1.40;;;15.60;69.90;;;;;;5071963;28;20395;-68
2023/10/07 11:48:21;;;;;;;4.68;1.60;;;15.60;70.00;;;;;;5073233;28;20032;-68
2023/10/07 11:50:48;;;;;;;6.35;1.70;;;15.50;70.50;;;;;;5056000;28;20037;-68
2023/10/07 11:53:19;;;;;;;7.80;1.70;;;15.50;70.60;;;;;;5055016;28;20526;-67
2023/10/07 11:55:45;;;;;;;;;;;15.50;70.70;;;;;;5070741;28;20540;-68
2023/10/07 11:58:15;;;;;;;6.30;2.05;;;15.40;70.90;;;;;;5072988;28;19913;-68
2023/10/07 12:00:42;;;;;;;8.40;2.17;;;15.40;70.90;;;;;;5072713;28;20124;-68
2023/10/07 12:03:10;;;;;;;6.38;2.00;;;15.40;70.80;;;;;;5071986;28;20048;-67
2023/10/07 12:05:40;;;;;;;7.57;2.10;;;15.30;70.90;;;;;;5072240;28;20103;-68
2023/10/07 12:08:11;;;;;;;6.50;1.77;;;15.40;70.90;;;;;;5069492;28;20043;-68
2023/10/07 12:10:38;;;;;;;6.32;2.20;;;15.30;71.00;;;;;;5072870;28;20102;-67
2023/10/07 12:13:14;;;;;;;9.18;2.05;;;15.30;71.10;;;;;;5073124;28;20035;-68
2023/10/07 12:15:42;;;;;;;6.57;2.00;;;15.30;71.30;;;;;;5071730;28;20397;-68
2023/10/07 12:18:12;;;;;;;8.60;1.90;;;15.30;71.20;;;;;;5037341;28;20029;-68
2023/10/07 12:20:39;;;;;;;;;;;15.30;71.30;;;;;;5039332;28;20440;-67
2023/10/07 12:23:07;;;;;;;6.78;2.38;;;15.30;71.40;;;;;;5072947;28;19936;-68
2023/10/07 12:25:37;;;;;;;5.60;2.10;;;15.30;71.80;;;;;;5072940;28;20036;-68
2023/10/07 12:28:08;;;;;;;7.45;2.30;;;15.30;71.90;;;;;;5071581;28;20039;-67
2023/10/07 12:30:36;;;;;;;7.97;2.10;;;15.30;72.10;;;;;;5071793;28;20095;-67
2023/10/07 12:33:03;;;;;;;11.65;2.55;;;15.30;72.50;;;;;;5054314;28;20541;-68
2023/10/07 12:35:31;;;;;;;9.32;2.25;;;15.30;72.60;;;;;;5072684;28;20050;-67
2023/10/07 12:38:00;;;;;;;6.28;1.77;;;15.20;72.90;;;;;;5070807;28;20040;-68
2023/10/07 12:40:30;;;;;;;7.78;2.17;;;15.20;72.70;;;;;;5071841;28;20047;-68
2023/10/07 21:29:58;;;;;;;6.10;1.33;;;14.80;77.10;;;;;;5061218;28;20971;-69
2023/10/07 21:32:25;;;;;;;4.75;1.38;;;14.90;77.30;;;;;;5044902;28;20039;-71
2023/10/07 21:34:53;;;;;;;6.10;1.67;;;15.00;77.30;;;;;;5068714;28;20040;-68
2023/10/07 21:37:20;;;;;;;6.90;1.30;;;15.00;77.40;;;;;;5069271;28;20064;-70
2023/10/07 21:39:47;;;;;;;6.63;1.33;;;15.10;76.70;;;;;;5065391;28;20048;-70
2023/10/07 21:42:15;;;;;;;6.82;1.40;;;15.10;76.60;;;;;;5071562;28;20448;-70
2023/10/07 21:44:42;;;;;;;4.13;1.67;;;15.20;76.70;;;;;;5071854;28;20017;-70
2023/10/07 21:47:09;;;;;;;7.43;1.35;;;15.20;76.10;;;;;;5071693;28;20028;-70
2023/10/07 21:49:37;;;;;;;8.15;1.55;;;15.20;76.20;;;;;;5071409;28;20041;-70
2023/10/07 21:52:05;;;;;;;5.30;1.50;;;15.20;76.10;;;;;;5071261;28;20033;-70
2023/10/07 21:54:32;;;;;;;4.65;1.58;;;15.30;75.90;;;;;;5071670;28;20028;-70
2023/10/07 21:57:02;;;;;;;5.50;1.63;;;15.30;76.00;;;;;;5075358;28;20489;-70
2023/10/07 21:59:30;;;;;;;7.80;1.92;;;15.30;76.20;;;;;;5057829;28;20191;-70
2023/10/07 22:01:57;;;;;;;5.78;1.58;;;15.40;76.00;;;;;;5057182;28;20036;-69
2023/10/07 22:04:24;;;;;;;8.25;1.52;;;15.40;75.60;;;;;;5057853;28;20037;-70
2023/10/07 22:06:51;;;;;;;6.57;1.77;;;15.40;75.00;;;;;;5075309;28;20036;-70
2023/10/07 22:09:19;;;;;;;3.55;1.48;;;15.50;74.90;;;;;;5075385;28;20036;-70
2023/10/07 22:11:47;;;;;;;2.28;1.23;;;15.50;74.80;;;;;;5075059;28;20036;-70
2023/10/07 22:14:14;;;;;;;3.78;1.38;;;15.50;74.50;;;;;;5057524;28;20032;-70
2023/10/07 22:16:42;;;;;;;7.05;1.77;;;15.60;74.40;;;;;;5055709;28;20032;-70
2023/10/07 22:19:10;;;;;;;5.95;1.33;;;15.70;74.40;;;;;;5072471;28;20043;-69
2023/10/07 22:21:37;;;;;;;4.13;1.33;;;15.70;74.60;;;;;;5074697;28;20041;-70
2023/10/07 22:24:05;;;;;;;3.25;1.35;;;15.80;73.80;;;;;;5075006;28;20592;-70
2023/10/07 22:26:33;;;;;;;7.18;1.55;;;15.90;74.10;;;;;;5073236;28;20494;-70
2023/10/07 22:29:03;;;;;;;5.50;1.60;;;16.00;73.20;;;;;;5074428;28;20402;-69
2023/10/07 22:31:30;;;;;;;3.90;1.17;;;16.10;72.60;;;;;;5074343;28;20025;-70
2023/10/07 22:33:58;;;;;;;5.35;1.30;;;16.20;72.40;;;;;;5074686;28;20081;-70
2023/10/07 22:36:25;;;;;;;3.85;1.50;;;16.30;72.60;;;;;;5075056;28;20024;-70
2023/10/07 22:38:56;;;;;;;4.28;1.17;;;16.40;72.10;;;;;;5060878;28;20079;-70
2023/10/07 22:41:37;;;;;;;8.07;1.65;;;16.50;71.10;;;;;;5074179;28;20487;-70
2023/10/07 22:44:20;;;;;;;5.13;1.45;;;16.60;70.30;;;;;;5058576;28;20135;-70
2023/10/07 22:46:51;;;;;;;4.72;1.40;;;16.70;70.10;;;;;;5058706;28;20039;-69
2023/10/07 22:49:22;;;;;;;4.97;1.20;;;16.80;69.80;;;;;;5057896;28;20047;-69
2023/10/07 22:51:53;;;;;;;4.60;1.42;;;16.80;68.90;;;;;;5075899;28;20227;-70
2023/10/07 22:54:32;;;;;;;6.80;1.30;;;16.90;68.50;;;;;;5056314;28;20131;-70
2023/10/07 22:57:00;;;;;;;5.68;1.52;;;17.00;68.60;;;;;;5076146;28;20021;-69
